Aérodrome :
LOGIN :

S'inscrire | Disclaimer

   EN    FR    IT 

 










Légende :    VFR   VFR Marginal   IFR   IFR Intensif   IFR Très Intensif
Visi : 
Plafond : 
>= 8 km
>= 3000ft
5 à 8 km
1000 à 3000 ft
1500m à 5 km
500 à 1000 ft
800 à 1500m
200 à 500 ft
< 800m
< 200 ft
Symboles :   Orages  Brouillard  Fortes neiges  Fortes précipitations  Vent > 20 kt
SIGMETs :   Divers  Orages  Givrage  Turbulence  Onde Orograph.  Cendres Volcan.






- Altitude de l'aérodrome : 1504 ft
- Code IATA : PNA


LEPP - Noain Pamplona

DERNIER METAR :
  • 180300Z AUTO VRB02KT 9999 SCT027 15/12 Q1015

METARs EXPIRÉS :
  • 180230Z AUTO 19005KT 140V230 9999 BKN028 15/12 Q1015
  • 180200Z AUTO 29004KT 9999 SCT030 BKN039 BKN050 16/11 Q1015
  • 180130Z AUTO 09003KT 9999 FEW038 BKN057 16/11 Q1015
  • 180100Z AUTO VRB02KT 9999 FEW055 16/11 Q1016
  • 180030Z AUTO 08002KT CAVOK 15/10 Q1015

TAF TAF LEPP
Valide du 18 à 03h jusqu'au 19 à 03h UTC


180200Z 1803/1903 VRB05KT 9999 BKN040 TX21/1814Z TN10/1903Z
TEMPO 1803/1804 RA
PROB40
TEMPO 1809/1816 33010KT



MET'MAP, la Météo Aéronautique d'un coup d'oeil ! - Copyright ORBIFLY Décembre 2007 - Disclaimer

ORBIFLY MET'MAP TEAM :

Programmation & Développement : Alexandra Zaïnal
Conception & Développement : Baudouin d'Aumeries
Co-Programmation & Développement : Marc-Olivier Méhu
Soutien technique & logistique : Manuel Goepfert

Contact : metmap@orbifly.com




SOURCES & CREDITS :

   NOAA